Time;durP1;ratioP1;P1;durP2;ratioP2;P2;SDS_P1;SDS_P2;PMS_P1;PMS_P2;Temp;Humidity;BMP_temperature;BMP_pressure;BME280_temperature;BME280_humidity;BME280_pressure;Samples;Min_cycle;Max_cycle;Signal;HPM_P1;HPM_P2
2022/03/11 00:00:49;;;;;;;13.63;11.03;;;8.20;56.10;;;;;;5051546;28;20629;-77
2022/03/11 00:03:18;;;;;;;16.23;12.43;;;8.20;56.30;;;;;;5042378;28;20201;-76
2022/03/11 00:05:46;;;;;;;17.27;12.77;;;8.10;56.40;;;;;;5054508;28;20198;-76
2022/03/11 00:08:13;;;;;;;19.90;12.17;;;8.10;56.70;;;;;;5046493;28;20199;-77
2022/03/11 00:10:42;;;;;;;16.10;12.00;;;8.10;57.00;;;;;;5037122;28;20218;-77
2022/03/11 00:13:10;;;;;;;19.17;12.20;;;8.10;57.10;;;;;;5039689;28;20591;-77
2022/03/11 00:15:37;;;;;;;24.67;13.37;;;7.90;57.20;;;;;;5028910;28;20218;-77
2022/03/11 00:18:05;;;;;;;15.80;11.87;;;8.00;57.50;;;;;;5030468;28;20198;-77
2022/03/11 00:20:32;;;;;;;13.83;11.17;;;8.10;57.30;;;;;;5036491;28;20573;-77
2022/03/11 00:23:00;;;;;;;15.80;11.50;;;8.10;57.60;;;;;;5034255;28;20223;-77
2022/03/11 00:25:29;;;;;;;17.63;12.37;;;8.00;57.60;;;;;;5052275;28;20210;-77
2022/03/11 00:28:00;;;;;;;15.03;12.27;;;7.90;57.90;;;;;;5033471;28;20201;-77
2022/03/11 00:30:28;;;;;;;15.77;13.03;;;7.90;58.30;;;;;;5048254;28;20194;-77
2022/03/11 00:32:55;;;;;;;15.27;11.87;;;8.00;58.60;;;;;;5045919;28;20226;-77
2022/03/11 00:35:23;;;;;;;16.03;11.87;;;7.90;59.40;;;;;;5047137;28;20217;-77
2022/03/11 00:37:50;;;;;;;15.77;12.17;;;7.90;59.20;;;;;;5036137;28;20190;-77
2022/03/11 00:40:36;;;;;;;15.73;12.37;;;7.90;59.20;;;;;;5040272;28;20202;-77
2022/03/11 00:43:05;;;;;;;17.50;12.50;;;7.80;59.10;;;;;;5068553;28;20209;-77
2022/03/11 00:45:33;;;;;;;14.27;12.07;;;7.70;59.60;;;;;;5040375;28;20199;-77
2022/03/11 00:48:00;;;;;;;15.27;12.00;;;7.50;60.10;;;;;;5034305;28;20210;-77
2022/03/11 00:50:27;;;;;;;17.93;12.17;;;7.60;60.60;;;;;;5032962;28;20562;-77
2022/03/11 00:52:55;;;;;;;16.87;12.20;;;7.50;61.00;;;;;;5056909;28;20217;-77
2022/03/11 00:55:58;;;;;;;15.40;12.60;;;7.70;60.90;;;;;;5057976;28;20205;-77
2022/03/11 00:58:27;;;;;;;16.63;11.87;;;7.60;60.70;;;;;;5044307;28;20205;-77
2022/03/11 01:00:54;;;;;;;15.53;12.63;;;7.70;61.30;;;;;;5029000;28;20207;-77
2022/03/11 01:03:22;;;;;;;15.17;11.93;;;7.80;60.90;;;;;;5038080;28;20668;-77
2022/03/11 01:05:49;;;;;;;16.60;12.37;;;7.90;60.70;;;;;;5040882;28;20201;-77
2022/03/11 01:08:16;;;;;;;16.33;11.43;;;8.10;60.90;;;;;;5032616;28;20213;-77
2022/03/11 01:10:44;;;;;;;14.83;11.10;;;8.10;59.70;;;;;;5042186;28;20201;-77
2022/03/11 01:13:11;;;;;;;15.13;11.67;;;8.20;60.60;;;;;;5046843;28;20674;-77
2022/03/11 01:15:40;;;;;;;15.43;11.97;;;8.00;59.80;;;;;;5029987;28;20206;-77
2022/03/11 01:18:07;;;;;;;14.43;11.93;;;7.70;60.60;;;;;;5038823;28;20539;-77
2022/03/11 01:20:35;;;;;;;15.03;12.07;;;7.60;61.40;;;;;;5062712;28;20202;-77
2022/03/11 01:23:02;;;;;;;16.33;12.23;;;7.50;61.90;;;;;;5048832;28;20214;-77
2022/03/11 01:25:30;;;;;;;16.30;12.03;;;7.40;62.70;;;;;;5046594;28;20206;-77
2022/03/11 01:27:57;;;;;;;16.43;12.87;;;7.30;63.30;;;;;;5032043;28;20217;-77
2022/03/11 01:30:25;;;;;;;16.53;13.20;;;7.20;63.90;;;;;;5028499;28;20207;-77
2022/03/11 01:32:54;;;;;;;14.73;12.30;;;7.10;63.90;;;;;;5044132;28;20221;-77
2022/03/11 01:35:22;;;;;;;15.67;12.60;;;7.20;64.40;;;;;;5046484;28;20198;-77
2022/03/11 01:37:50;;;;;;;16.70;12.90;;;7.20;64.60;;;;;;5053359;28;20194;-77
2022/03/11 01:40:17;;;;;;;15.70;12.70;;;7.10;65.10;;;;;;5035933;28;20209;-77
2022/03/11 01:42:45;;;;;;;17.13;13.03;;;7.00;65.20;;;;;;5046662;28;20591;-77
2022/03/11 01:45:12;;;;;;;15.70;12.00;;;6.90;66.50;;;;;;5036314;28;20198;-77
2022/03/11 01:47:40;;;;;;;14.87;11.93;;;6.80;66.40;;;;;;5060459;28;20174;-77
2022/03/11 01:50:09;;;;;;;17.53;12.97;;;6.80;67.10;;;;;;5040911;28;20656;-77
2022/03/11 01:52:37;;;;;;;15.73;12.37;;;6.60;67.80;;;;;;5036216;28;20210;-77
2022/03/11 01:55:06;;;;;;;17.33;12.40;;;6.60;68.70;;;;;;5030910;28;20219;-77
2022/03/11 01:58:12;;;;;;;13.80;12.23;;;6.50;68.80;;;;;;5031102;28;20195;-77
2022/03/11 02:00:40;;;;;;;16.23;12.63;;;6.50;70.10;;;;;;5044987;28;20191;-77
2022/03/11 02:03:07;;;;;;;15.60;11.90;;;6.60;69.50;;;;;;5034902;28;20223;-77
2022/03/11 02:05:36;;;;;;;16.10;12.60;;;6.70;69.20;;;;;;5044185;28;20212;-77
2022/03/11 02:08:04;;;;;;;14.47;11.33;;;6.50;68.90;;;;;;5038399;28;20193;-77
2022/03/11 02:10:31;;;;;;;16.80;12.63;;;6.60;68.90;;;;;;5062736;28;20556;-77
2022/03/11 02:12:59;;;;;;;16.03;12.67;;;6.50;69.80;;;;;;5035949;28;20225;-77
2022/03/11 02:15:27;;;;;;;19.73;12.33;;;6.90;69.20;;;;;;5030997;28;20230;-77
2022/03/11 02:17:54;;;;;;;16.93;12.93;;;7.40;69.20;;;;;;5044427;28;20206;-77
2022/03/11 02:20:22;;;;;;;15.47;12.37;;;7.30;66.60;;;;;;5028054;28;20207;-77
2022/03/11 02:22:53;;;;;;;18.23;13.20;;;7.30;66.90;;;;;;5029790;28;20712;-77
2022/03/11 02:25:21;;;;;;;16.10;12.70;;;7.10;66.80;;;;;;5046264;28;20201;-77
2022/03/11 02:27:49;;;;;;;13.40;11.47;;;7.30;67.90;;;;;;5036570;28;20203;-77
2022/03/11 02:30:27;;;;;;;15.43;11.90;;;7.30;67.10;;;;;;5027572;28;20210;-77
2022/03/11 02:32:55;;;;;;;15.03;11.83;;;7.20;66.80;;;;;;5038382;28;20225;-77
2022/03/11 02:35:22;;;;;;;18.07;12.63;;;7.00;67.10;;;;;;5055756;28;20224;-77
2022/03/11 02:37:49;;;;;;;15.00;12.20;;;6.70;68.30;;;;;;5044566;28;20202;-77
2022/03/11 02:40:17;;;;;;;16.43;12.70;;;6.50;69.20;;;;;;5040902;28;20218;-77
2022/03/11 02:42:45;;;;;;;16.80;12.07;;;6.50;70.10;;;;;;5039556;28;20222;-77
2022/03/11 02:45:13;;;;;;;15.60;12.20;;;6.50;70.70;;;;;;5028112;28;20209;-77
2022/03/11 02:47:40;;;;;;;13.10;11.60;;;6.20;71.30;;;;;;5032904;28;20855;-76
2022/03/11 02:50:08;;;;;;;14.27;11.77;;;6.10;72.90;;;;;;5034728;28;20574;-77
2022/03/11 02:52:36;;;;;;;14.37;11.60;;;6.20;73.90;;;;;;5061481;28;20219;-77
2022/03/11 02:55:03;;;;;;;16.00;11.67;;;6.60;73.20;;;;;;5046476;28;20225;-77
2022/03/11 02:57:30;;;;;;;17.73;11.30;;;6.80;72.50;;;;;;5049452;28;20204;-77
2022/03/11 02:59:59;;;;;;;14.23;11.53;;;7.20;71.60;;;;;;5053928;28;20185;-77
2022/03/11 03:02:26;;;;;;;14.57;10.97;;;7.20;69.70;;;;;;5030183;28;20218;-77
2022/03/11 03:04:55;;;;;;;14.07;11.40;;;7.00;70.00;;;;;;5033999;28;20201;-77
2022/03/11 03:07:22;;;;;;;14.53;11.43;;;6.80;69.30;;;;;;5034205;28;20213;-77
2022/03/11 03:09:52;;;;;;;17.87;12.10;;;6.90;71.00;;;;;;5031675;28;20209;-77
2022/03/11 03:12:19;;;;;;;14.90;11.83;;;6.90;70.80;;;;;;5033732;28;20226;-77
2022/03/11 03:14:46;;;;;;;14.87;11.87;;;6.40;69.50;;;;;;5050948;28;20218;-77
2022/03/11 03:17:15;;;;;;;15.87;11.53;;;6.00;72.10;;;;;;5030853;28;20199;-77
2022/03/11 03:19:43;;;;;;;12.43;10.37;;;6.00;73.90;;;;;;5032900;28;20556;-77
2022/03/11 03:22:10;;;;;;;13.37;10.83;;;6.40;76.70;;;;;;5039908;28;20221;-77
2022/03/11 03:24:39;;;;;;;15.50;11.57;;;6.50;73.00;;;;;;5043264;28;20660;-77
2022/03/11 03:27:07;;;;;;;13.80;10.83;;;6.00;73.40;;;;;;5042242;28;20197;-77
2022/03/11 03:29:34;;;;;;;14.73;10.97;;;6.30;76.40;;;;;;5053641;28;20209;-77
2022/03/11 03:32:02;;;;;;;15.47;11.73;;;6.40;74.10;;;;;;5032945;28;20224;-77
2022/03/11 03:34:32;;;;;;;15.33;10.70;;;6.10;75.20;;;;;;5034503;28;20215;-77
2022/03/11 03:37:03;;;;;;;13.43;10.50;;;6.00;73.50;;;;;;5046386;28;20193;-77
2022/03/11 03:39:30;;;;;;;15.27;10.83;;;5.60;78.70;;;;;;5047797;28;20197;-76
2022/03/11 03:41:58;;;;;;;14.43;11.00;;;5.60;77.60;;;;;;5036688;28;20623;-77
2022/03/11 03:44:25;;;;;;;14.37;10.73;;;5.60;78.30;;;;;;5041686;28;20187;-77
2022/03/11 03:46:53;;;;;;;16.77;12.43;;;5.60;79.10;;;;;;5052283;28;20210;-77
2022/03/11 03:49:20;;;;;;;16.40;11.43;;;6.00;78.20;;;;;;5071326;28;20185;-77
2022/03/11 03:51:50;;;;;;;15.77;11.23;;;5.80;77.80;;;;;;5039224;28;20238;-77
2022/03/11 03:54:17;;;;;;;13.53;10.73;;;5.50;79.10;;;;;;5035346;28;20214;-77
2022/03/11 03:56:46;;;;;;;13.73;10.97;;;5.70;81.90;;;;;;5035598;28;20197;-77
2022/03/11 03:59:15;;;;;;;14.70;10.80;;;6.10;79.70;;;;;;5038060;28;20197;-77
2022/03/11 04:01:44;;;;;;;16.57;12.17;;;6.30;78.60;;;;;;5057400;28;20289;-77
2022/03/11 04:04:12;;;;;;;15.20;11.60;;;6.10;76.00;;;;;;5034041;28;20203;-77
2022/03/11 04:06:42;;;;;;;13.57;10.07;;;5.70;78.00;;;;;;5063031;28;20194;-77
2022/03/11 04:09:12;;;;;;;14.13;10.93;;;5.70;81.40;;;;;;5042700;28;20198;-77
2022/03/11 04:11:40;;;;;;;14.23;11.23;;;6.10;77.50;;;;;;5031730;28;20229;-77
2022/03/11 04:14:08;;;;;;;15.50;10.77;;;5.90;77.60;;;;;;5033749;28;20200;-77
2022/03/11 04:16:35;;;;;;;14.50;10.60;;;5.90;78.70;;;;;;5038569;28;20206;-77
2022/03/11 04:19:03;;;;;;;15.33;10.20;;;5.90;77.60;;;;;;5055598;28;20201;-77
2022/03/11 04:21:30;;;;;;;14.30;10.33;;;5.60;78.80;;;;;;5053657;28;20215;-77
2022/03/11 04:23:58;;;;;;;14.17;10.43;;;5.60;79.10;;;;;;5059529;28;20222;-77
2022/03/11 04:26:52;;;;;;;15.03;11.00;;;5.70;79.10;;;;;;5042900;28;20198;-77
2022/03/11 04:29:19;;;;;;;12.50;10.50;;;5.70;78.40;;;;;;5052162;28;20548;-77
2022/03/11 04:31:47;;;;;;;15.13;10.80;;;5.90;76.30;;;;;;5043229;28;20576;-77
2022/03/11 04:34:14;;;;;;;13.67;10.20;;;6.00;74.60;;;;;;5064833;28;20198;-77
2022/03/11 04:36:41;;;;;;;12.27;10.47;;;6.20;74.10;;;;;;5033445;28;20231;-77
2022/03/11 04:39:09;;;;;;;13.17;10.03;;;6.30;73.40;;;;;;5065626;28;20191;-77
2022/03/11 04:41:37;;;;;;;15.67;10.67;;;6.70;73.20;;;;;;5052716;28;20226;-77
2022/03/11 04:44:06;;;;;;;13.70;9.87;;;6.80;71.50;;;;;;5052977;28;20208;-77
2022/03/11 04:46:33;;;;;;;12.30;9.87;;;6.90;71.40;;;;;;5052696;28;20195;-77
2022/03/11 04:49:01;;;;;;;12.80;10.00;;;7.00;71.90;;;;;;5052610;28;20533;-77
2022/03/11 04:51:28;;;;;;;13.83;10.27;;;7.10;72.00;;;;;;5063945;28;20224;-77
2022/03/11 04:53:55;;;;;;;12.40;9.53;;;7.10;70.80;;;;;;5061191;28;20729;-77
2022/03/11 04:56:23;;;;;;;13.10;10.43;;;7.20;70.80;;;;;;5048911;28;20202;-77
2022/03/11 04:58:50;;;;;;;12.17;9.43;;;7.20;69.50;;;;;;5032640;28;20210;-77
2022/03/11 05:01:19;;;;;;;13.73;10.37;;;7.10;69.70;;;;;;5034466;28;20218;-77
2022/03/11 05:03:46;;;;;;;13.03;9.67;;;7.00;69.20;;;;;;5061906;28;20193;-77
2022/03/11 05:06:13;;;;;;;14.17;10.47;;;7.00;69.00;;;;;;5037114;28;20224;-77
2022/03/11 05:08:41;;;;;;;11.93;9.83;;;7.00;70.10;;;;;;5032610;28;20657;-77
2022/03/11 05:11:08;;;;;;;13.67;10.60;;;7.20;68.20;;;;;;5062438;28;20213;-77
2022/03/11 05:13:35;;;;;;;14.53;10.03;;;7.00;67.30;;;;;;5053096;28;20190;-77
2022/03/11 05:16:03;;;;;;;15.03;10.73;;;7.00;67.10;;;;;;5039849;28;20217;-77
2022/03/11 05:18:31;;;;;;;13.43;10.10;;;7.00;66.10;;;;;;5023972;28;20199;-77
2022/03/11 05:20:59;;;;;;;12.90;9.93;;;6.90;65.70;;;;;;5049843;28;20201;-77
2022/03/11 05:23:26;;;;;;;12.97;10.00;;;7.10;64.40;;;;;;5055522;28;20217;-77
2022/03/11 05:25:54;;;;;;;15.50;11.80;;;7.20;64.90;;;;;;5043918;28;20247;-77
2022/03/11 05:28:23;;;;;;;15.97;10.70;;;6.90;64.50;;;;;;5031407;28;20513;-77
2022/03/11 05:30:50;;;;;;;16.10;10.90;;;6.80;64.50;;;;;;5044620;28;20190;-77
2022/03/11 05:33:18;;;;;;;16.80;10.90;;;6.90;63.80;;;;;;5036887;28;20203;-77
2022/03/11 05:35:46;;;;;;;13.50;10.10;;;7.00;63.20;;;;;;5048330;28;20218;-77
2022/03/11 05:38:14;;;;;;;16.43;11.10;;;7.20;62.60;;;;;;5050204;28;20209;-77
2022/03/11 05:40:41;;;;;;;17.00;12.87;;;7.10;62.60;;;;;;5054192;28;20194;-77
2022/03/11 05:43:09;;;;;;;16.60;12.30;;;7.20;63.20;;;;;;5035053;28;20592;-77
2022/03/11 05:45:37;;;;;;;14.10;11.70;;;7.20;62.10;;;;;;5034701;28;20195;-77
2022/03/11 05:48:05;;;;;;;15.60;11.13;;;7.40;62.30;;;;;;5033063;28;20676;-77
2022/03/11 05:50:34;;;;;;;17.47;11.47;;;7.40;61.90;;;;;;5042041;28;20558;-77
2022/03/11 05:53:05;;;;;;;13.67;9.97;;;7.30;61.70;;;;;;5053129;28;20226;-77
2022/03/11 05:56:10;;;;;;;14.97;11.17;;;7.60;64.50;;;;;;5027065;28;20218;-76
2022/03/11 05:58:37;;;;;;;13.83;9.83;;;8.50;70.60;;;;;;5064705;28;20193;-76
2022/03/11 06:01:06;;;;;;;11.67;9.83;;;9.30;63.70;;;;;;5034425;28;20205;-77
2022/03/11 06:03:34;;;;;;;17.60;11.97;;;9.90;62.70;;;;;;5036973;28;20195;-78
2022/03/11 06:06:01;;;;;;;14.17;10.90;;;8.70;57.50;;;;;;5050082;28;20194;-78
2022/03/11 06:08:30;;;;;;;14.93;11.33;;;8.00;58.40;;;;;;5034375;28;20206;-78
2022/03/11 06:10:58;;;;;;;14.60;11.47;;;7.80;59.10;;;;;;5045797;28;20203;-78
2022/03/11 06:13:25;;;;;;;16.40;12.00;;;7.70;58.70;;;;;;5035173;28;20194;-78
2022/03/11 06:15:56;;;;;;;17.03;12.20;;;7.60;59.20;;;;;;5027871;28;20225;-78
2022/03/11 06:18:26;;;;;;;16.63;12.07;;;7.60;58.80;;;;;;5041461;28;20189;-78
2022/03/11 06:20:55;;;;;;;15.40;12.33;;;7.70;58.60;;;;;;5034412;28;20195;-78
2022/03/11 06:23:23;;;;;;;16.53;12.60;;;7.70;58.90;;;;;;5052655;28;20198;-78
2022/03/11 06:26:09;;;;;;;17.33;12.50;;;7.50;59.60;;;;;;5055440;28;20201;-78
2022/03/11 06:28:42;;;;;;;18.00;12.53;;;7.50;59.00;;;;;;5032949;28;20678;-78
2022/03/11 06:31:23;;;;;;;18.93;12.43;;;7.40;58.70;;;;;;5025619;28;20225;-78
2022/03/11 06:33:50;;;;;;;18.27;12.90;;;7.50;58.60;;;;;;5055183;28;20194;-78
2022/03/11 06:36:18;;;;;;;19.43;12.90;;;7.50;59.00;;;;;;5039465;28;20222;-78
2022/03/11 06:38:45;;;;;;;18.67;12.33;;;7.60;59.60;;;;;;5058485;28;20198;-78
2022/03/11 06:41:17;;;;;;;18.33;13.90;;;7.50;59.20;;;;;;5032596;28;20691;-78
2022/03/11 06:43:51;;;;;;;17.13;12.70;;;7.60;58.90;;;;;;5035300;28;20205;-78
2022/03/11 06:46:45;;;;;;;17.17;12.57;;;7.80;58.50;;;;;;5034439;28;20200;-78
2022/03/11 06:49:12;;;;;;;15.47;12.60;;;7.60;58.20;;;;;;5041038;28;20217;-78
2022/03/11 06:51:40;;;;;;;19.83;13.63;;;7.50;58.10;;;;;;5053637;28;20238;-77
2022/03/11 06:54:08;;;;;;;19.60;13.77;;;7.40;58.30;;;;;;5028714;28;20210;-79
2022/03/11 06:56:43;;;;;;;17.87;14.27;;;7.40;59.10;;;;;;5041605;28;20221;-78
2022/03/11 06:59:13;;;;;;;17.07;13.97;;;7.40;59.30;;;;;;5053764;28;20278;-78
2022/03/11 07:01:47;;;;;;;19.80;13.63;;;7.30;59.50;;;;;;5034820;28;20214;-78
2022/03/11 07:04:15;;;;;;;19.43;12.97;;;7.40;59.60;;;;;;5038186;28;20205;-78
2022/03/11 07:06:43;;;;;;;19.40;13.30;;;7.40;59.30;;;;;;5033785;28;20222;-78
2022/03/11 07:09:14;;;;;;;18.33;13.43;;;7.40;59.40;;;;;;5041319;28;20198;-80
2022/03/11 07:11:46;;;;;;;20.43;13.77;;;7.60;59.30;;;;;;5035530;28;20221;-78
2022/03/11 07:14:13;;;;;;;18.07;13.30;;;7.50;59.00;;;;;;5033651;28;20209;-79
2022/03/11 07:16:41;;;;;;;45.97;16.30;;;7.40;58.90;;;;;;5051578;28;20206;-77
2022/03/11 07:19:09;;;;;;;17.13;12.63;;;7.60;59.60;;;;;;5041694;28;20644;-77
2022/03/11 07:21:37;;;;;;;19.93;14.17;;;7.80;58.70;;;;;;5033378;28;20229;-77
2022/03/11 07:24:17;;;;;;;17.83;14.10;;;7.80;58.70;;;;;;5026623;28;20202;-77
2022/03/11 07:26:46;;;;;;;16.93;13.53;;;7.80;57.80;;;;;;5035766;28;20195;-77
2022/03/11 07:29:23;;;;;;;19.97;13.27;;;7.70;57.20;;;;;;5032769;28;20209;-77
2022/03/11 07:31:54;;;;;;;18.73;12.97;;;7.60;57.70;;;;;;5033268;28;20222;-77
2022/03/11 07:34:23;;;;;;;18.27;13.83;;;7.60;57.90;;;;;;5053736;28;20178;-77
2022/03/11 07:36:51;;;;;;;18.57;13.10;;;7.80;58.10;;;;;;5047810;28;20212;-78
2022/03/11 07:39:22;;;;;;;19.63;14.20;;;8.20;58.30;;;;;;5037761;28;20194;-78
2022/03/11 07:41:51;;;;;;;17.27;13.17;;;8.00;57.50;;;;;;5039601;28;20230;-78
2022/03/11 07:44:18;;;;;;;19.07;14.17;;;8.00;58.00;;;;;;5032339;28;20835;-78
2022/03/11 07:46:46;;;;;;;21.13;14.40;;;7.90;57.60;;;;;;5039279;28;20197;-78
2022/03/11 07:49:14;;;;;;;18.53;13.73;;;8.10;58.00;;;;;;5049482;28;20209;-76
2022/03/11 07:51:41;;;;;;;17.40;13.10;;;8.00;57.20;;;;;;5046051;28;20219;-76
2022/03/11 07:54:09;;;;;;;18.70;14.20;;;8.00;58.30;;;;;;5041375;28;20206;-76
2022/03/11 07:56:36;;;;;;;18.27;14.23;;;8.00;57.40;;;;;;5035359;28;20230;-76
2022/03/11 07:59:06;;;;;;;19.57;15.07;;;8.00;57.80;;;;;;5020319;28;20542;-76
2022/03/11 08:01:34;;;;;;;21.63;15.30;;;7.90;57.50;;;;;;5019873;28;20677;-76
2022/03/11 08:04:01;;;;;;;18.67;14.57;;;8.20;58.30;;;;;;5018948;28;20195;-76
2022/03/11 08:06:29;;;;;;;18.90;14.20;;;8.20;57.60;;;;;;5030081;28;20203;-76
2022/03/11 08:08:57;;;;;;;20.03;15.13;;;8.40;57.60;;;;;;5036280;28;20657;-76
2022/03/11 08:11:24;;;;;;;20.50;14.03;;;8.20;56.50;;;;;;5038527;28;20217;-76
2022/03/11 08:13:52;;;;;;;19.20;14.10;;;8.20;56.80;;;;;;5055005;28;20209;-76
2022/03/11 08:16:21;;;;;;;19.77;13.67;;;8.20;57.30;;;;;;5038588;28;20190;-75
2022/03/11 08:18:48;;;;;;;19.80;14.50;;;8.30;56.60;;;;;;5056492;28;20191;-76
2022/03/11 08:21:17;;;;;;;19.83;14.63;;;8.20;57.00;;;;;;5039044;28;20218;-76
2022/03/11 08:23:45;;;;;;;19.77;13.93;;;8.10;57.10;;;;;;5039430;28;20206;-76
2022/03/11 08:26:13;;;;;;;18.87;13.97;;;8.30;56.90;;;;;;5038080;28;20284;-76
2022/03/11 08:28:41;;;;;;;18.80;13.77;;;8.30;58.20;;;;;;5035567;28;20206;-76
2022/03/11 08:31:09;;;;;;;17.77;14.23;;;8.30;56.70;;;;;;5021278;28;20211;-76
2022/03/11 08:33:39;;;;;;;19.30;13.57;;;8.40;56.70;;;;;;5052766;28;20202;-76
2022/03/11 08:36:07;;;;;;;18.37;14.37;;;8.50;58.00;;;;;;5045216;28;20198;-76
2022/03/11 08:38:35;;;;;;;18.27;14.13;;;8.60;57.50;;;;;;5038180;28;20692;-76
2022/03/11 08:41:06;;;;;;;16.93;13.83;;;8.80;57.10;;;;;;5051112;28;20665;-76
2022/03/11 08:43:34;;;;;;;16.90;13.70;;;8.70;56.20;;;;;;5037961;28;20202;-76
2022/03/11 08:46:02;;;;;;;21.97;14.87;;;8.90;57.00;;;;;;5035193;28;20195;-76
2022/03/11 08:48:30;;;;;;;21.17;13.80;;;8.80;55.70;;;;;;5020826;28;20199;-75
2022/03/11 08:50:59;;;;;;;21.30;15.13;;;8.80;55.90;;;;;;5037536;28;20664;-76
2022/03/11 08:53:27;;;;;;;18.30;13.77;;;8.80;56.10;;;;;;5034765;28;20207;-75
2022/03/11 08:55:54;;;;;;;19.30;13.60;;;8.60;55.50;;;;;;5018704;28;20199;-76
2022/03/11 08:58:21;;;;;;;17.43;13.43;;;8.70;56.40;;;;;;5017306;28;20215;-76
2022/03/11 09:00:49;;;;;;;20.53;14.07;;;8.80;55.70;;;;;;5029510;28;20195;-76
2022/03/11 09:03:16;;;;;;;19.17;14.50;;;8.80;56.10;;;;;;5038009;28;20198;-76
2022/03/11 09:05:44;;;;;;;17.47;13.43;;;8.90;55.70;;;;;;5037742;28;20199;-76
2022/03/11 09:08:12;;;;;;;18.80;14.27;;;8.90;55.60;;;;;;5037918;28;20199;-76
2022/03/11 09:10:42;;;;;;;19.73;14.03;;;9.10;56.20;;;;;;5037817;28;20213;-76
2022/03/11 09:13:10;;;;;;;22.87;15.53;;;9.00;55.70;;;;;;5040062;28;20229;-76
2022/03/11 09:15:37;;;;;;;19.27;14.30;;;9.00;55.50;;;;;;5025587;28;20656;-76
2022/03/11 09:18:10;;;;;;;21.63;13.77;;;9.20;54.70;;;;;;5037347;28;20221;-76
2022/03/11 09:20:38;;;;;;;19.00;13.27;;;9.30;55.00;;;;;;5036319;28;20683;-75
2022/03/11 09:23:06;;;;;;;17.53;13.40;;;9.30;54.20;;;;;;5034090;28;20226;-76
2022/03/11 09:25:39;;;;;;;18.47;13.40;;;9.10;53.70;;;;;;5059437;28;20209;-73
2022/03/11 09:28:10;;;;;;;18.63;13.47;;;9.60;56.20;;;;;;5040368;28;20195;-74
2022/03/11 09:30:49;;;;;;;18.70;14.33;;;10.30;54.50;;;;;;5023587;28;20190;-73
2022/03/11 09:33:16;;;;;;;19.50;13.73;;;10.30;53.30;;;;;;5054710;28;20718;-73
2022/03/11 09:35:44;;;;;;;18.00;14.13;;;10.50;53.60;;;;;;5047601;28;20661;-75
2022/03/11 09:38:11;;;;;;;16.80;13.50;;;10.50;53.50;;;;;;5027139;28;20214;-74
2022/03/11 09:40:43;;;;;;;17.70;12.73;;;10.60;51.90;;;;;;5040413;28;20194;-76
2022/03/11 09:43:30;;;;;;;17.50;14.03;;;9.90;52.70;;;;;;5035397;28;20218;-75
2022/03/11 09:45:59;;;;;;;19.33;14.53;;;9.70;53.20;;;;;;5038441;28;20205;-75
2022/03/11 09:48:27;;;;;;;16.47;13.23;;;9.90;53.60;;;;;;5056968;28;20205;-75
2022/03/11 09:50:55;;;;;;;16.80;12.97;;;9.90;53.00;;;;;;5036274;28;20206;-75
2022/03/11 09:53:32;;;;;;;17.27;13.57;;;10.00;53.00;;;;;;5036099;28;20693;-75
2022/03/11 09:56:01;;;;;;;16.83;13.70;;;10.20;52.20;;;;;;5036231;28;20201;-75
2022/03/11 09:58:29;;;;;;;18.23;13.73;;;9.80;52.30;;;;;;5034043;28;20306;-75
2022/03/11 10:00:58;;;;;;;17.23;12.80;;;9.80;52.20;;;;;;5032789;28;20194;-75
2022/03/11 10:03:29;;;;;;;16.53;12.93;;;10.10;51.00;;;;;;5033916;28;20194;-75
2022/03/11 10:05:56;;;;;;;17.30;12.33;;;10.10;51.10;;;;;;5033333;28;20206;-75
2022/03/11 10:08:32;;;;;;;20.10;13.53;;;10.10;50.80;;;;;;5046834;28;20194;-75
2022/03/11 10:11:24;;;;;;;16.83;12.07;;;10.00;50.30;;;;;;5034427;28;20209;-75
2022/03/11 10:13:53;;;;;;;15.60;11.83;;;10.30;50.90;;;;;;5035993;28;20556;-75
2022/03/11 10:16:23;;;;;;;17.87;11.83;;;10.30;50.30;;;;;;5031620;28;20191;-75
2022/03/11 10:18:58;;;;;;;16.40;12.27;;;10.50;50.40;;;;;;5016124;28;20219;-75
2022/03/11 10:21:30;;;;;;;17.20;12.83;;;10.50;49.70;;;;;;5031450;28;20210;-75
2022/03/11 10:23:58;;;;;;;16.80;13.20;;;10.60;50.00;;;;;;5032717;28;20203;-75
2022/03/11 10:26:35;;;;;;;17.90;13.93;;;10.90;50.70;;;;;;5033330;28;20694;-75
2022/03/11 10:29:05;;;;;;;16.58;12.90;;;11.20;51.00;;;;;;5038907;28;20198;-75
2022/03/11 10:31:34;;;;;;;18.07;13.07;;;11.10;49.40;;;;;;5047848;28;20226;-75
2022/03/11 10:34:22;;;;;;;16.23;13.07;;;11.30;50.10;;;;;;5036092;28;20206;-75
2022/03/11 10:36:54;;;;;;;15.10;12.50;;;11.50;49.20;;;;;;5050575;28;20292;-75
2022/03/11 10:39:25;;;;;;;19.90;13.25;;;11.30;48.90;;;;;;5032455;28;20225;-75
2022/03/11 10:41:54;;;;;;;17.30;13.10;;;11.40;48.40;;;;;;5051432;28;20210;-75
2022/03/11 10:44:25;;;;;;;16.00;12.75;;;11.40;48.50;;;;;;5032349;28;20199;-75
2022/03/11 10:46:55;;;;;;;20.37;13.40;;;11.40;47.80;;;;;;5033469;28;20205;-75
2022/03/11 10:49:27;;;;;;;16.95;12.73;;;11.70;48.20;;;;;;5034875;28;20190;-75
2022/03/11 10:51:56;;;;;;;16.47;12.00;;;11.70;47.20;;;;;;5034450;28;20688;-75
2022/03/11 10:54:28;;;;;;;16.38;12.18;;;11.80;47.30;;;;;;5047804;28;21109;-75
2022/03/11 10:57:11;;;;;;;15.50;12.77;;;11.70;46.70;;;;;;5015332;28;20198;-75
2022/03/11 10:59:38;;;;;;;15.77;12.52;;;11.90;47.80;;;;;;5014887;28;20584;-75
2022/03/11 11:02:08;;;;;;;18.35;12.93;;;12.00;46.10;;;;;;5036583;28;20214;-75
2022/03/11 11:04:36;;;;;;;16.75;13.27;;;12.20;47.20;;;;;;5035812;28;20205;-75
2022/03/11 11:07:05;;;;;;;17.38;12.70;;;12.30;46.60;;;;;;5034556;28;20202;-75
2022/03/11 11:09:33;;;;;;;24.73;13.40;;;12.20;46.30;;;;;;5034960;28;20198;-75
2022/03/11 11:12:02;;;;;;;17.85;12.63;;;12.40;46.30;;;;;;5046733;28;20695;-75
2022/03/11 11:14:29;;;;;;;18.10;13.07;;;12.70;48.10;;;;;;5051101;28;20570;-75
2022/03/11 11:17:01;;;;;;;18.33;13.57;;;13.00;46.80;;;;;;5045303;28;20198;-75
2022/03/11 11:19:30;;;;;;;17.25;12.70;;;12.80;46.30;;;;;;5035055;28;20215;-75
2022/03/11 11:21:59;;;;;;;20.40;13.05;;;12.80;46.30;;;;;;5031396;28;20219;-75
2022/03/11 11:24:52;;;;;;;17.25;12.90;;;13.10;46.30;;;;;;5033703;28;20218;-75
2022/03/11 11:27:21;;;;;;;18.27;13.43;;;13.40;47.00;;;;;;5031603;28;20213;-78
2022/03/11 11:30:22;;;;;;;16.10;13.30;;;13.40;45.50;;;;;;5051687;28;20191;-75
2022/03/11 11:32:52;;;;;;;16.80;12.35;;;13.40;46.30;;;;;;5058655;28;20222;-76
2022/03/11 11:35:26;;;;;;;17.42;13.25;;;13.50;45.10;;;;;;5053058;28;20202;-76
2022/03/11 11:38:34;;;;;;;18.17;13.65;;;13.50;44.60;;;;;;5039226;28;20194;-76
2022/03/11 11:41:05;;;;;;;17.10;13.10;;;13.90;45.40;;;;;;5028461;28;20203;-77
2022/03/11 11:43:34;;;;;;;20.15;14.13;;;13.80;44.50;;;;;;5030525;28;20653;-77
2022/03/11 11:46:19;;;;;;;17.90;14.10;;;13.50;43.70;;;;;;5030066;28;20197;-76
2022/03/11 11:49:07;;;;;;;17.15;13.38;;;13.50;43.90;;;;;;5042707;28;20198;-76
2022/03/11 11:51:54;;;;;;;19.48;14.10;;;13.60;44.70;;;;;;5051911;28;20237;-76
2022/03/11 11:54:42;;;;;;;18.25;13.77;;;13.70;44.40;;;;;;5031853;28;20212;-77
2022/03/11 11:57:46;;;;;;;17.73;14.55;;;13.90;45.70;;;;;;5044163;28;20235;-77
2022/03/11 12:00:54;;;;;;;17.77;13.25;;;13.90;45.80;;;;;;5049116;28;20211;-77
2022/03/11 12:03:58;;;;;;;17.38;13.80;;;13.80;44.70;;;;;;5044307;28;20209;-77
2022/03/11 12:07:04;;;;;;;17.63;13.38;;;13.90;44.50;;;;;;5050978;28;20197;-76
2022/03/11 12:09:54;;;;;;;18.05;14.05;;;14.00;44.20;;;;;;5036158;28;20210;-76
2022/03/11 12:13:04;;;;;;;25.98;14.95;;;14.10;45.90;;;;;;5048177;28;20221;-76
2022/03/11 12:15:39;;;;;;;16.70;13.20;;;14.40;45.80;;;;;;5032767;28;20205;-76
2022/03/11 12:18:42;;;;;;;16.85;13.55;;;14.50;44.20;;;;;;5035556;28;20206;-77
2022/03/11 12:21:23;;;;;;;15.48;12.80;;;14.50;43.30;;;;;;5037197;28;20209;-76
2022/03/11 12:23:51;;;;;;;16.33;13.57;;;14.30;43.30;;;;;;5039225;28;20687;-76
2022/03/11 12:26:45;;;;;;;16.58;13.85;;;14.40;45.00;;;;;;5040114;28;20203;-77
2022/03/11 12:29:31;;;;;;;17.52;13.48;;;15.40;45.30;;;;;;5001581;28;20203;-77
2022/03/11 12:31:58;;;;;;;16.98;13.35;;;15.60;43.10;;;;;;5030324;28;20229;-77
2022/03/11 12:34:51;;;;;;;14.32;12.70;;;16.00;43.90;;;;;;5059215;28;20206;-77
2022/03/11 12:37:21;;;;;;;15.05;12.98;;;16.40;42.50;;;;;;5042420;28;20563;-76
2022/03/11 12:39:54;;;;;;;15.68;13.00;;;16.10;41.90;;;;;;5031908;28;20217;-77
2022/03/11 12:42:36;;;;;;;14.70;12.57;;;15.80;44.60;;;;;;5034190;28;20222;-77
2022/03/11 12:45:13;;;;;;;16.88;13.20;;;15.50;42.30;;;;;;5035418;28;20202;-77
2022/03/11 12:47:43;;;;;;;15.82;11.93;;;15.30;43.70;;;;;;5042172;28;20194;-77
2022/03/11 12:50:13;;;;;;;14.98;12.75;;;15.60;43.10;;;;;;5031409;28;20194;-77
2022/03/11 12:52:58;;;;;;;13.95;11.52;;;15.60;44.90;;;;;;5056076;28;20221;-77
2022/03/11 12:55:26;;;;;;;16.45;12.40;;;15.70;43.80;;;;;;5054879;28;20205;-78